Time;durP1;ratioP1;P1;durP2;ratioP2;P2;SDS_P1;SDS_P2;PMS_P1;PMS_P2;Temp;Humidity;BMP_temperature;BMP_pressure;BME280_temperature;BME280_humidity;BME280_pressure;Samples;Min_cycle;Max_cycle;Signal;HPM_P1;HPM_P2
2023/09/18 00:00:21;;;;;;;21.13;12.23;;;;;;;;;;5052541;28;20021;-67
2023/09/18 00:02:47;;;;;;;20.55;11.13;;;;;;;;;;5052921;28;20375;-67
2023/09/18 00:05:15;;;;;;;19.98;10.50;;;;;;;;;;5052706;28;20500;-67
2023/09/18 00:07:44;;;;;;;17.98;10.60;;;;;;;;;;5034130;28;20053;-67
2023/09/18 00:10:11;;;;;;;16.27;10.13;;;;;;;;;;5029442;28;20080;-67
2023/09/18 00:12:36;;;;;;;24.52;11.68;;;;;;;;;;5014328;28;20029;-67
2023/09/18 00:15:01;;;;;;;18.35;11.75;;;;;;;;;;5028921;28;20044;-67
2023/09/18 00:17:30;;;;;;;19.88;11.68;;;;;;;;;;5031303;28;20025;-67
2023/09/18 00:19:56;;;;;;;20.83;12.43;;;;;;;;;;5031926;28;20056;-67
2023/09/18 00:22:21;;;;;;;18.52;10.82;;;;;;;;;;5017428;28;20052;-67
2023/09/18 00:24:47;;;;;;;16.05;10.25;;;;;;;;;;5018418;28;20026;-67
2023/09/18 00:27:13;;;;;;;20.55;11.20;;;;;;;;;;5016229;28;20030;-67
2023/09/18 00:29:39;;;;;;;23.05;13.40;;;;;;;;;;5033143;28;20036;-67
2023/09/18 00:32:04;;;;;;;22.05;11.88;;;;;;;;;;5036435;28;20025;-67
2023/09/18 00:34:31;;;;;;;18.52;11.27;;;;;;;;;;5035792;28;20387;-67
2023/09/18 00:36:57;;;;;;;22.50;12.27;;;;;;;;;;5036148;28;20079;-67
2023/09/18 00:39:22;;;;;;;24.83;12.40;;;;;;;;;;5035846;28;20443;-67
2023/09/18 00:41:51;;;;;;;17.80;10.90;;;;;;;;;;5035848;28;20041;-67
2023/09/18 00:44:16;;;;;;;16.42;10.38;;;;;;;;;;5035452;28;20545;-67
2023/09/18 00:46:41;;;;;;;20.23;10.57;;;;;;;;;;5035394;28;20112;-67
2023/09/18 00:49:07;;;;;;;19.45;13.98;;;;;;;;;;5035765;28;20022;-67
2023/09/18 00:51:32;;;;;;;19.25;10.10;;;;;;;;;;5035142;28;20022;-67
2023/09/18 00:53:58;;;;;;;19.05;11.48;;;;;;;;;;5021576;28;20029;-67
2023/09/18 00:56:23;;;;;;;24.27;12.48;;;;;;;;;;5029892;28;20112;-67
2023/09/18 00:58:49;;;;;;;24.17;13.18;;;;;;;;;;5035649;28;20029;-67
2023/09/18 01:01:16;;;;;;;16.42;11.48;;;;;;;;;;5034125;28;20398;-67
2023/09/18 01:03:42;;;;;;;19.25;12.27;;;;;;;;;;5035400;28;20049;-67
2023/09/18 01:06:07;;;;;;;20.35;11.18;;;;;;;;;;5035360;28;20052;-67
2023/09/18 01:08:32;;;;;;;20.13;11.02;;;;;;;;;;5018417;28;20038;-67
2023/09/18 01:11:21;;;;;;;15.52;10.25;;;;;;;;;;5015335;28;20029;-67
2023/09/18 01:13:53;;;;;;;19.88;12.23;;;;;;;;;;5012858;28;20022;-67
2023/09/18 01:16:25;;;;;;;21.00;11.55;;;;;;;;;;5014848;28;20373;-67
2023/09/18 01:18:51;;;;;;;19.13;11.30;;;;;;;;;;5032631;28;20105;-67
2023/09/18 01:21:20;;;;;;;18.30;10.80;;;;;;;;;;5033623;28;20104;-67
2023/09/18 01:23:46;;;;;;;16.88;10.57;;;;;;;;;;5016851;28;20388;-67
2023/09/18 01:26:11;;;;;;;21.08;10.98;;;;;;;;;;5014927;28;20024;-67
2023/09/18 01:28:36;;;;;;;18.80;11.38;;;;;;;;;;5020646;28;20809;-67
2023/09/18 01:31:01;;;;;;;19.15;10.48;;;;;;;;;;5014916;28;20026;-68
2023/09/18 01:33:28;;;;;;;17.67;10.55;;;;;;;;;;5014994;28;20026;-67
2023/09/18 01:35:55;;;;;;;14.60;9.18;;;;;;;;;;5033137;28;20100;-67
2023/09/18 01:38:22;;;;;;;17.02;10.07;;;;;;;;;;5033500;28;20026;-67
2023/09/18 01:40:47;;;;;;;17.05;10.25;;;;;;;;;;5034521;28;20036;-67
2023/09/18 01:43:13;;;;;;;15.43;10.38;;;;;;;;;;5033065;28;20426;-67
2023/09/18 01:45:38;;;;;;;15.68;9.50;;;;;;;;;;5034478;28;20029;-67
2023/09/18 01:48:05;;;;;;;11.70;8.38;;;;;;;;;;5033641;28;20080;-67
2023/09/18 01:50:31;;;;;;;14.07;8.55;;;;;;;;;;5033786;28;20048;-67
2023/09/18 01:52:58;;;;;;;15.07;9.32;;;;;;;;;;5034710;28;20483;-67
2023/09/18 01:55:23;;;;;;;16.05;9.02;;;;;;;;;;5034145;28;20075;-67
2023/09/18 01:57:49;;;;;;;14.48;9.60;;;;;;;;;;5026248;28;20022;-67
2023/09/18 02:00:15;;;;;;;14.95;9.57;;;;;;;;;;5021969;28;20124;-67
2023/09/18 02:02:40;;;;;;;14.30;9.10;;;;;;;;;;5013923;28;20017;-67
2023/09/18 02:05:06;;;;;;;17.95;11.50;;;;;;;;;;5021087;28;20033;-67
2023/09/18 02:07:31;;;;;;;16.45;10.23;;;;;;;;;;5034384;28;20029;-67
2023/09/18 02:09:56;;;;;;;16.33;10.25;;;;;;;;;;5030074;28;20049;-67
2023/09/18 02:12:22;;;;;;;15.23;9.05;;;;;;;;;;5014000;28;20490;-67
2023/09/18 02:14:47;;;;;;;13.80;8.90;;;;;;;;;;5016022;28;20096;-67
2023/09/18 02:17:12;;;;;;;16.48;9.73;;;;;;;;;;5020939;28;20025;-67
2023/09/18 02:19:38;;;;;;;18.30;11.13;;;;;;;;;;5014113;28;20025;-67
2023/09/18 02:22:03;;;;;;;16.25;9.85;;;;;;;;;;5031389;28;20033;-67
2023/09/18 02:24:28;;;;;;;17.08;11.32;;;;;;;;;;5033893;28;20037;-67
2023/09/18 02:26:54;;;;;;;17.42;10.10;;;;;;;;;;5032750;28;20476;-67
2023/09/18 02:29:19;;;;;;;16.73;11.13;;;;;;;;;;5033610;28;20033;-67
2023/09/18 02:31:44;;;;;;;17.30;11.38;;;;;;;;;;5033063;28;20487;-67
2023/09/18 02:34:10;;;;;;;20.02;11.65;;;;;;;;;;5031102;28;20098;-67
2023/09/18 02:36:35;;;;;;;21.08;12.18;;;;;;;;;;5033548;28;20040;-67
2023/09/18 02:39:01;;;;;;;18.42;11.10;;;;;;;;;;5020840;28;20479;-67
2023/09/18 02:41:26;;;;;;;19.75;11.88;;;;;;;;;;5031528;28;20032;-67
2023/09/18 02:43:51;;;;;;;21.45;11.90;;;;;;;;;;5032731;28;20049;-67
2023/09/18 02:46:17;;;;;;;21.05;12.60;;;;;;;;;;5032195;28;20403;-67
2023/09/18 02:48:42;;;;;;;20.25;12.10;;;;;;;;;;5033403;28;20480;-67
2023/09/18 02:51:08;;;;;;;22.30;12.50;;;;;;;;;;5033311;28;20029;-67
2023/09/18 02:53:33;;;;;;;22.65;12.93;;;;;;;;;;5032908;28;20108;-67
2023/09/18 02:55:59;;;;;;;22.10;12.63;;;;;;;;;;5033233;28;20021;-67
2023/09/18 02:58:26;;;;;;;21.95;13.38;;;;;;;;;;5030510;28;20100;-67
2023/09/18 03:00:53;;;;;;;17.30;11.25;;;;;;;;;;5033327;28;20033;-67
2023/09/18 03:03:18;;;;;;;22.02;12.00;;;;;;;;;;5029720;28;20028;-67
2023/09/18 03:05:44;;;;;;;20.38;12.38;;;;;;;;;;5018590;28;20404;-67
2023/09/18 03:08:11;;;;;;;20.73;12.35;;;;;;;;;;5012968;28;20037;-67
2023/09/18 03:10:39;;;;;;;19.98;10.90;;;;;;;;;;5013485;28;20231;-67
2023/09/18 03:13:05;;;;;;;17.27;10.80;;;;;;;;;;5012413;28;20026;-67
2023/09/18 03:15:31;;;;;;;16.02;10.23;;;;;;;;;;5011625;28;20047;-67
2023/09/18 03:17:57;;;;;;;24.33;11.43;;;;;;;;;;5013486;28;20018;-67
2023/09/18 03:20:26;;;;;;;21.75;12.73;;;;;;;;;;5013819;28;20111;-67
2023/09/18 03:22:53;;;;;;;16.33;9.98;;;;;;;;;;5013417;28;20033;-67
2023/09/18 03:25:18;;;;;;;18.52;10.23;;;;;;;;;;5013508;28;20034;-67
2023/09/18 03:27:44;;;;;;;20.77;11.93;;;;;;;;;;5012585;28;20026;-67
2023/09/18 03:30:12;;;;;;;21.17;12.45;;;;;;;;;;5012499;28;20389;-67
2023/09/18 03:32:37;;;;;;;19.88;11.70;;;;;;;;;;5013279;28;20399;-67
2023/09/18 03:35:03;;;;;;;21.75;12.65;;;;;;;;;;5013354;28;20105;-67
2023/09/18 03:37:28;;;;;;;23.15;13.82;;;;;;;;;;5013516;28;20029;-67
2023/09/18 03:39:53;;;;;;;20.10;11.13;;;;;;;;;;5012849;28;20018;-67
2023/09/18 03:42:19;;;;;;;16.17;10.48;;;;;;;;;;5013522;28;20061;-67
2023/09/18 03:44:44;;;;;;;21.15;11.95;;;;;;;;;;5013238;28;20025;-67
2023/09/18 03:47:09;;;;;;;17.60;11.32;;;;;;;;;;5013719;28;20029;-67
2023/09/18 03:49:35;;;;;;;20.30;11.70;;;;;;;;;;5013109;28;20044;-67
2023/09/18 03:52:00;;;;;;;19.83;12.40;;;;;;;;;;5012697;28;20475;-67
2023/09/18 03:54:25;;;;;;;25.30;13.70;;;;;;;;;;5014115;28;20029;-67
2023/09/18 03:56:50;;;;;;;24.55;13.00;;;;;;;;;;5017229;28;20021;-67
2023/09/18 03:59:16;;;;;;;21.52;13.73;;;;;;;;;;5016634;28;20368;-67
2023/09/18 04:01:41;;;;;;;20.50;12.23;;;;;;;;;;5017098;28;20033;-67
2023/09/18 04:04:06;;;;;;;19.80;11.95;;;;;;;;;;5017070;28;20030;-67
2023/09/18 04:06:43;;;;;;;20.58;12.57;;;;;;;;;;5016656;28;20025;-67
2023/09/18 04:09:08;;;;;;;19.55;12.25;;;;;;;;;;5017188;28;20022;-68
2023/09/18 04:11:34;;;;;;;24.02;14.55;;;;;;;;;;5017225;28;20036;-67
2023/09/18 04:14:04;;;;;;;22.08;12.43;;;;;;;;;;5017084;28;20065;-67
2023/09/18 04:16:35;;;;;;;22.42;12.40;;;;;;;;;;5015693;28;20444;-67
2023/09/18 04:19:00;;;;;;;;;;;;;;;;;;5016971;28;20105;-68
2023/09/18 04:21:25;;;;;;;21.57;12.00;;;;;;;;;;5017056;28;20304;-67
2023/09/18 04:23:55;;;;;;;18.70;11.18;;;;;;;;;;5016718;28;20272;-67
2023/09/18 04:26:21;;;;;;;21.65;11.40;;;;;;;;;;5016646;28;20399;-67
2023/09/18 04:28:46;;;;;;;24.52;14.05;;;;;;;;;;5015882;28;20041;-67
2023/09/18 04:31:12;;;;;;;19.20;10.93;;;;;;;;;;5016540;28;20109;-67
2023/09/18 04:33:37;;;;;;;19.05;11.85;;;;;;;;;;5016757;28;20467;-67
2023/09/18 04:36:02;;;;;;;18.25;10.88;;;;;;;;;;5016584;28;20060;-67
2023/09/18 04:38:28;;;;;;;20.10;12.10;;;;;;;;;;5016377;28;20026;-67
2023/09/18 04:41:02;;;;;;;26.65;13.48;;;;;;;;;;5017109;28;20029;-67
2023/09/18 04:43:29;;;;;;;18.58;11.40;;;;;;;;;;5017915;28;20033;-67
2023/09/18 04:45:55;;;;;;;20.75;13.18;;;;;;;;;;5016680;28;20033;-67
2023/09/18 04:48:20;;;;;;;18.05;11.32;;;;;;;;;;5024580;28;20030;-67
2023/09/18 04:50:46;;;;;;;21.52;11.95;;;;;;;;;;5015644;28;20115;-67
2023/09/18 04:53:12;;;;;;;20.75;11.95;;;;;;;;;;5014015;28;20022;-67
2023/09/18 04:55:38;;;;;;;20.50;12.07;;;;;;;;;;5016104;28;20029;-67
2023/09/18 04:58:03;;;;;;;21.80;12.15;;;;;;;;;;5016069;28;20030;-67
2023/09/18 05:00:29;;;;;;;19.95;11.82;;;;;;;;;;5017805;28;20033;-67
2023/09/18 05:02:54;;;;;;;24.13;13.95;;;;;;;;;;5028218;28;20013;-67
2023/09/18 05:05:20;;;;;;;22.15;13.13;;;;;;;;;;5032023;28;20545;-67
2023/09/18 05:07:45;;;;;;;22.33;13.02;;;;;;;;;;5021859;28;20034;-67
2023/09/18 05:10:10;;;;;;;19.70;11.63;;;;;;;;;;5019467;28;20083;-67
2023/09/18 05:12:38;;;;;;;21.20;13.13;;;;;;;;;;5025155;28;20026;-67
2023/09/18 05:15:04;;;;;;;22.60;12.68;;;;;;;;;;5015291;28;20484;-67
2023/09/18 05:17:46;;;;;;;20.20;12.82;;;;;;;;;;5013701;28;20060;-67
2023/09/18 05:20:16;;;;;;;23.40;13.63;;;;;;;;;;5016102;28;20104;-67
2023/09/18 05:22:42;;;;;;;18.88;11.98;;;;;;;;;;5015291;28;20045;-67
2023/09/18 05:25:11;;;;;;;25.13;14.98;;;;;;;;;;5017890;28;20025;-67
2023/09/18 05:27:43;;;;;;;19.45;11.70;;;;;;;;;;5033396;28;20022;-67
2023/09/18 05:30:16;;;;;;;17.55;11.38;;;;;;;;;;5034386;28;20106;-67
2023/09/18 05:32:42;;;;;;;20.45;13.30;;;;;;;;;;5035105;28;20025;-67
2023/09/18 05:35:10;;;;;;;21.73;13.60;;;;;;;;;;5035115;28;20025;-67
2023/09/18 05:37:37;;;;;;;20.77;12.68;;;;;;;;;;5034438;28;20022;-67
2023/09/18 05:40:05;;;;;;;19.42;11.20;;;;;;;;;;5035025;28;20025;-67
2023/09/18 05:42:30;;;;;;;21.02;12.13;;;;;;;;;;5033088;28;20436;-67
2023/09/18 05:44:56;;;;;;;17.48;11.18;;;;;;;;;;5034655;28;20032;-67
2023/09/18 05:47:22;;;;;;;18.15;12.07;;;;;;;;;;5034489;28;20028;-68
2023/09/18 05:49:47;;;;;;;23.25;12.68;;;;;;;;;;5034318;28;20036;-67
2023/09/18 05:52:12;;;;;;;17.85;11.35;;;;;;;;;;5033728;28;20017;-67
2023/09/18 05:54:37;;;;;;;20.45;12.13;;;;;;;;;;5034609;28;20487;-68
2023/09/18 05:57:03;;;;;;;23.20;13.88;;;;;;;;;;5034125;28;20021;-67
2023/09/18 05:59:28;;;;;;;19.17;13.00;;;;;;;;;;5032439;28;20155;-68
2023/09/18 06:01:54;;;;;;;22.50;13.73;;;;;;;;;;5034072;28;20029;-68
2023/09/18 06:04:19;;;;;;;21.67;14.00;;;;;;;;;;5033984;28;20127;-68
2023/09/18 06:06:45;;;;;;;18.75;12.35;;;;;;;;;;5033822;28;20033;-68
2023/09/18 06:09:10;;;;;;;20.65;13.10;;;;;;;;;;5034299;28;20025;-68
2023/09/18 06:11:35;;;;;;;21.83;13.32;;;;;;;;;;5017506;28;20022;-68
2023/09/18 06:14:01;;;;;;;20.88;12.30;;;;;;;;;;5013722;28;20383;-67
2023/09/18 06:16:26;;;;;;;21.92;12.57;;;;;;;;;;5020575;28;20078;-67
2023/09/18 06:18:51;;;;;;;21.17;13.38;;;;;;;;;;5033458;28;20033;-67
2023/09/18 06:21:16;;;;;;;23.73;13.25;;;;;;;;;;5032166;28;20014;-67
2023/09/18 06:23:42;;;;;;;19.63;11.65;;;;;;;;;;5033929;28;20109;-68
2023/09/18 06:26:07;;;;;;;21.05;13.00;;;;;;;;;;5032638;28;20502;-67
2023/09/18 06:28:32;;;;;;;20.73;12.27;;;;;;;;;;5026984;28;20488;-67
2023/09/18 06:30:58;;;;;;;22.73;12.30;;;;;;;;;;5013881;28;20035;-67
2023/09/18 06:33:23;;;;;;;18.70;11.48;;;;;;;;;;5014365;28;20113;-68
2023/09/18 06:35:48;;;;;;;16.80;11.20;;;;;;;;;;5023516;28;20030;-67
2023/09/18 06:38:15;;;;;;;20.00;12.27;;;;;;;;;;5012108;28;20021;-67
2023/09/18 06:40:40;;;;;;;19.38;12.55;;;;;;;;;;5013099;28;20021;-68
2023/09/18 06:43:06;;;;;;;22.05;11.43;;;;;;;;;;5032157;28;20384;-68
2023/09/18 06:45:33;;;;;;;18.27;11.18;;;;;;;;;;5033354;28;20021;-68
2023/09/18 06:47:58;;;;;;;19.10;10.85;;;;;;;;;;5033310;28;20045;-67
2023/09/18 06:50:24;;;;;;;19.17;12.27;;;;;;;;;;5033511;28;20490;-67
2023/09/18 06:52:49;;;;;;;21.48;11.35;;;;;;;;;;5033403;28;20029;-67
2023/09/18 06:55:16;;;;;;;18.50;11.25;;;;;;;;;;5033053;28;20053;-67
2023/09/18 06:57:41;;;;;;;16.20;11.32;;;;;;;;;;5028833;28;20022;-67
2023/09/18 07:00:07;;;;;;;16.65;10.30;;;;;;;;;;5014002;28;20025;-67
2023/09/18 07:02:33;;;;;;;20.00;11.90;;;;;;;;;;5013626;28;20034;-67
2023/09/18 07:04:58;;;;;;;19.05;10.98;;;;;;;;;;5031079;28;20029;-67
2023/09/18 07:07:25;;;;;;;15.65;9.45;;;;;;;;;;5032297;28;20063;-67
2023/09/18 07:09:51;;;;;;;18.67;11.48;;;;;;;;;;5022155;28;20403;-67
2023/09/18 07:12:18;;;;;;;16.02;10.43;;;;;;;;;;5033122;28;20025;-67
2023/09/18 07:14:44;;;;;;;17.42;11.13;;;;;;;;;;5031219;28;20028;-67
2023/09/18 07:17:09;;;;;;;18.70;10.38;;;;;;;;;;5015293;28;20018;-67
2023/09/18 07:19:35;;;;;;;15.85;10.13;;;;;;;;;;5013312;28;20057;-67
2023/09/18 07:22:01;;;;;;;14.27;9.80;;;;;;;;;;5025218;28;20025;-67
2023/09/18 07:24:26;;;;;;;18.02;9.80;;;;;;;;;;5032787;28;20399;-67
2023/09/18 07:26:51;;;;;;;14.45;9.20;;;;;;;;;;5032693;28;20040;-67
2023/09/18 07:29:17;;;;;;;20.17;10.55;;;;;;;;;;5032177;28;20038;-67
2023/09/18 07:31:42;;;;;;;14.20;9.98;;;;;;;;;;5032490;28;20025;-67
2023/09/18 07:34:08;;;;;;;15.93;10.10;;;;;;;;;;5032448;28;20044;-67
2023/09/18 07:36:34;;;;;;;16.10;8.80;;;;;;;;;;5032479;28;20029;-68
2023/09/18 07:38:59;;;;;;;17.05;9.90;;;;;;;;;;5031395;28;20363;-68
2023/09/18 07:41:25;;;;;;;14.68;9.18;;;;;;;;;;5028903;28;20045;-68
2023/09/18 07:43:50;;;;;;;16.05;8.52;;;;;;;;;;5031651;28;20399;-67
2023/09/18 07:46:15;;;;;;;12.32;9.02;;;;;;;;;;5026315;28;20087;-67
2023/09/18 07:48:41;;;;;;;12.90;9.48;;;;;;;;;;5012260;28;20392;-68
2023/09/18 07:51:06;;;;;;;13.77;9.18;;;;;;;;;;5016801;28;20025;-67
2023/09/18 07:53:32;;;;;;;13.20;9.50;;;;;;;;;;5032217;28;20018;-67
2023/09/18 07:55:58;;;;;;;17.25;9.38;;;;;;;;;;5032109;28;20033;-67
2023/09/18 07:58:27;;;;;;;11.43;8.85;;;;;;;;;;5032080;28;20025;-67
2023/09/18 08:00:53;;;;;;;14.48;9.35;;;;;;;;;;5032284;28;20025;-67
2023/09/18 08:03:19;;;;;;;15.05;8.55;;;;;;;;;;5031720;28;20034;-68
2023/09/18 08:05:44;;;;;;;12.07;8.27;;;;;;;;;;5032359;28;20024;-68
2023/09/18 08:08:10;;;;;;;14.60;8.48;;;;;;;;;;5031903;28;20091;-67
2023/09/18 08:10:37;;;;;;;13.57;8.45;;;;;;;;;;5023531;28;20022;-67
2023/09/18 08:13:03;;;;;;;16.00;9.10;;;;;;;;;;5030053;28;20021;-67
2023/09/18 08:15:29;;;;;;;12.98;8.73;;;;;;;;;;5032300;28;20120;-67
2023/09/18 08:17:54;;;;;;;13.93;8.88;;;;;;;;;;5032021;28;20033;-67
2023/09/18 08:20:19;;;;;;;16.02;9.57;;;;;;;;;;5031783;28;20152;-67
2023/09/18 08:22:45;;;;;;;13.63;8.40;;;;;;;;;;5018869;28;20026;-67
2023/09/18 08:25:11;;;;;;;16.10;9.07;;;;;;;;;;5012115;28;20026;-66
2023/09/18 08:27:41;;;;;;;12.52;8.05;;;;;;;;;;5019173;28;20033;-66
2023/09/18 08:30:09;;;;;;;12.63;8.63;;;;;;;;;;5028365;28;20033;-67
2023/09/18 08:32:34;;;;;;;11.60;7.40;;;;;;;;;;5011996;28;20030;-67
2023/09/18 08:35:01;;;;;;;11.95;9.50;;;;;;;;;;5012344;28;20033;-67
2023/09/18 08:37:27;;;;;;;11.30;7.82;;;;;;;;;;5026414;28;20028;-67
2023/09/18 08:39:52;;;;;;;12.77;8.38;;;;;;;;;;5031773;28;20025;-67
2023/09/18 08:42:19;;;;;;;13.10;8.63;;;;;;;;;;5033393;28;20033;-67
2023/09/18 08:44:48;;;;;;;11.85;7.65;;;;;;;;;;5016870;28;20105;-67
2023/09/18 08:47:14;;;;;;;12.38;7.60;;;;;;;;;;5014306;28;20049;-67
2023/09/18 08:49:40;;;;;;;12.75;8.40;;;;;;;;;;5014632;28;20123;-67
2023/09/18 08:52:06;;;;;;;15.90;8.60;;;;;;;;;;5023820;28;20028;-66
2023/09/18 08:54:33;;;;;;;14.15;7.57;;;;;;;;;;5034096;28;20040;-66
2023/09/18 08:56:58;;;;;;;15.35;7.95;;;;;;;;;;5034056;28;20049;-66
2023/09/18 08:59:25;;;;;;;12.20;7.43;;;;;;;;;;5034570;28;20457;-66
2023/09/18 09:01:50;;;;;;;14.15;7.78;;;;;;;;;;5034991;28;20033;-66
2023/09/18 09:04:15;;;;;;;11.77;7.93;;;;;;;;;;5024151;28;20503;-66
2023/09/18 09:06:40;;;;;;;13.02;7.93;;;;;;;;;;5019057;28;20026;-67
2023/09/18 09:09:07;;;;;;;10.98;8.13;;;;;;;;;;5013502;28;20029;-67
2023/09/18 09:11:33;;;;;;;11.68;8.18;;;;;;;;;;5014756;28;20544;-66
2023/09/18 09:14:28;;;;;;;10.95;7.88;;;;;;;;;;5015218;28;20061;-66
2023/09/18 09:16:54;;;;;;;9.95;7.20;;;;;;;;;;5014385;28;20408;-66
2023/09/18 09:19:29;;;;;;;10.30;7.65;;;;;;;;;;5015164;28;20479;-66
2023/09/18 09:21:55;;;;;;;13.00;8.45;;;;;;;;;;5015035;28;20113;-66
2023/09/18 09:24:42;;;;;;;10.00;7.60;;;;;;;;;;5014197;28;20537;-66
2023/09/18 09:27:08;;;;;;;13.82;8.43;;;;;;;;;;5015416;28;20079;-66
2023/09/18 09:29:34;;;;;;;11.50;8.60;;;;;;;;;;5014949;28;20037;-66
2023/09/18 09:32:16;;;;;;;12.20;8.77;;;;;;;;;;5015108;28;20036;-66
2023/09/18 09:34:42;;;;;;;13.02;7.95;;;;;;;;;;5014531;28;20033;-67
2023/09/18 09:37:08;;;;;;;13.55;8.60;;;;;;;;;;5015247;28;20014;-66
2023/09/18 09:39:34;;;;;;;12.43;8.15;;;;;;;;;;5013812;28;20052;-67
2023/09/18 09:42:01;;;;;;;14.63;8.80;;;;;;;;;;5014000;28;20041;-67
2023/09/18 09:44:28;;;;;;;12.82;8.50;;;;;;;;;;5014904;28;20037;-67
2023/09/18 09:46:54;;;;;;;14.73;8.50;;;;;;;;;;5014952;28;20022;-67
2023/09/18 09:49:19;;;;;;;13.00;7.80;;;;;;;;;;5013001;28;20078;-67
2023/09/18 09:51:45;;;;;;;15.80;9.95;;;;;;;;;;5014703;28;20026;-67
2023/09/18 09:54:12;;;;;;;16.70;8.98;;;;;;;;;;5015374;28;20036;-67
2023/09/18 09:56:43;;;;;;;15.73;8.80;;;;;;;;;;5014582;28;20033;-67
2023/09/18 09:59:11;;;;;;;15.43;9.07;;;;;;;;;;5014550;28;20164;-66
2023/09/18 10:01:37;;;;;;;16.05;9.10;;;;;;;;;;5012860;28;20152;-67
2023/09/18 10:04:09;;;;;;;22.67;10.25;;;;;;;;;;5014755;28;20030;-67
2023/09/18 10:06:36;;;;;;;14.68;9.50;;;;;;;;;;5013179;28;20112;-67
2023/09/18 10:09:03;;;;;;;15.77;9.88;;;;;;;;;;4996690;28;20033;-67
2023/09/18 10:11:30;;;;;;;14.75;9.35;;;;;;;;;;5013112;28;20553;-67
2023/09/18 10:13:59;;;;;;;15.98;9.48;;;;;;;;;;5013025;28;20109;-67
2023/09/18 10:16:27;;;;;;;15.63;9.07;;;;;;;;;;5012485;28;20030;-67
2023/09/18 10:19:21;;;;;;;16.38;10.35;;;;;;;;;;5013290;28;20061;-67
2023/09/18 10:22:10;;;;;;;15.45;9.68;;;;;;;;;;5012965;28;20494;-67
2023/09/18 10:24:37;;;;;;;18.83;10.63;;;;;;;;;;5013177;28;20503;-67
2023/09/18 10:27:03;;;;;;;15.73;10.32;;;;;;;;;;5014130;28;20587;-67
2023/09/18 10:29:30;;;;;;;16.98;10.55;;;;;;;;;;5013353;28;20068;-68
2023/09/18 10:31:55;;;;;;;17.52;10.68;;;;;;;;;;5014059;28;20076;-68
2023/09/18 10:34:23;;;;;;;16.30;11.50;;;;;;;;;;5013847;28;20018;-67
2023/09/18 10:36:50;;;;;;;16.83;10.00;;;;;;;;;;5013313;28;20030;-68
2023/09/18 10:39:23;;;;;;;16.23;10.68;;;;;;;;;;5013837;28;20017;-68
2023/09/18 10:41:52;;;;;;;17.58;10.88;;;;;;;;;;5014062;28;20087;-68
2023/09/18 10:44:18;;;;;;;15.70;10.25;;;;;;;;;;5013671;28;20026;-68
2023/09/18 10:46:48;;;;;;;17.52;10.68;;;;;;;;;;5012665;28;20431;-68
2023/09/18 10:49:15;;;;;;;16.25;10.98;;;;;;;;;;5014047;28;20053;-68
2023/09/18 10:51:42;;;;;;;19.20;11.02;;;;;;;;;;5012144;28;20340;-68
2023/09/18 10:54:11;;;;;;;16.55;10.27;;;;;;;;;;5012096;28;20381;-68
2023/09/18 10:56:36;;;;;;;19.58;10.30;;;;;;;;;;5012470;28;20053;-67
2023/09/18 10:59:04;;;;;;;16.23;10.68;;;;;;;;;;5011817;28;20081;-68
2023/09/18 11:01:30;;;;;;;21.60;10.65;;;;;;;;;;5011822;28;20041;-67
2023/09/18 11:04:01;;;;;;;19.40;10.88;;;;;;;;;;5013028;28;20030;-67
2023/09/18 11:06:27;;;;;;;17.00;11.18;;;;;;;;;;5013466;28;20022;-67
2023/09/18 11:09:01;;;;;;;17.45;10.05;;;;;;;;;;5013192;28;20341;-67
2023/09/18 11:11:29;;;;;;;23.67;12.02;;;;;;;;;;5013833;28;20100;-68
2023/09/18 11:13:56;;;;;;;18.75;12.15;;;;;;;;;;5012733;28;20403;-67
2023/09/18 11:16:27;;;;;;;18.58;10.10;;;;;;;;;;5012422;28;20026;-68
2023/09/18 11:18:54;;;;;;;16.45;10.60;;;;;;;;;;5013151;28;20067;-67
2023/09/18 11:21:30;;;;;;;19.58;10.45;;;;;;;;;;5011928;28;20410;-68
2023/09/18 11:24:04;;;;;;;16.85;10.57;;;;;;;;;;5012643;28;20060;-67
2023/09/18 11:26:30;;;;;;;16.27;9.80;;;;;;;;;;5012066;28;20095;-71
2023/09/18 11:28:58;;;;;;;21.02;10.90;;;;;;;;;;5012951;28;20035;-68
2023/09/18 11:31:43;;;;;;;18.60;11.07;;;;;;;;;;5013190;28;20029;-68
2023/09/18 11:34:15;;;;;;;17.08;10.18;;;;;;;;;;5012101;28;20044;-68
2023/09/18 11:36:41;;;;;;;18.40;10.30;;;;;;;;;;5012445;28;20026;-68
2023/09/18 11:39:09;;;;;;;18.13;11.38;;;;;;;;;;5011820;28;20136;-69
2023/09/18 11:41:38;;;;;;;20.30;10.95;;;;;;;;;;5011938;28;20365;-68
2023/09/18 11:44:06;;;;;;;20.30;11.65;;;;;;;;;;5011621;28;20510;-68
2023/09/18 11:46:32;;;;;;;22.63;11.13;;;;;;;;;;5012876;28;20048;-69
2023/09/18 11:48:59;;;;;;;20.13;12.15;;;;;;;;;;5012178;28;20492;-69
2023/09/18 11:51:24;;;;;;;18.75;11.82;;;;;;;;;;5012872;28;20033;-69
2023/09/18 11:53:52;;;;;;;20.40;10.75;;;;;;;;;;5011928;28;20022;-70
2023/09/18 11:56:18;;;;;;;17.35;10.15;;;;;;;;;;5011613;28;20018;-70
2023/09/18 11:58:51;;;;;;;17.77;9.82;;;;;;;;;;5011528;28;20049;-70
2023/09/18 12:01:18;;;;;;;17.55;10.35;;;;;;;;;;4994578;28;20491;-70
2023/09/18 12:03:44;;;;;;;17.50;9.95;;;;;;;;;;5011552;28;20112;-70
2023/09/18 12:06:12;;;;;;;17.60;10.05;;;;;;;;;;4995191;28;20453;-70
2023/09/18 12:08:38;;;;;;;18.55;10.45;;;;;;;;;;5011616;28;20026;-70
2023/09/18 12:11:07;;;;;;;19.98;11.23;;;;;;;;;;5011544;28;20018;-70
2023/09/18 12:13:32;;;;;;;20.02;11.35;;;;;;;;;;5011998;28;20038;-70
2023/09/18 12:16:04;;;;;;;18.02;10.20;;;;;;;;;;5013241;28;20033;-70
2023/09/18 12:18:30;;;;;;;18.02;10.27;;;;;;;;;;5015545;28;20026;-70
2023/09/18 12:20:56;;;;;;;18.58;10.82;;;;;;;;;;5016432;28;20029;-70
2023/09/18 12:23:21;;;;;;;18.63;11.30;;;;;;;;;;5014700;28;20018;-70
2023/09/18 12:25:48;;;;;;;21.23;11.43;;;;;;;;;;5016339;28;20034;-70
2023/09/18 12:28:16;;;;;;;20.45;9.88;;;;;;;;;;5014994;28;20099;-70
2023/09/18 12:30:46;;;;;;;21.33;11.35;;;;;;;;;;5015194;28;20049;-70
2023/09/18 12:33:12;;;;;;;17.00;9.55;;;;;;;;;;5015027;28;20034;-70
2023/09/18 12:35:37;;;;;;;21.48;9.00;;;;;;;;;;5014308;28;20550;-70
2023/09/18 12:38:13;;;;;;;20.48;8.88;;;;;;;;;;5014905;28;20026;-70
2023/09/18 12:40:38;;;;;;;19.52;9.73;;;;;;;;;;5015349;28;20018;-70
2023/09/18 12:43:06;;;;;;;18.15;8.70;;;;;;;;;;5015744;28;20071;-70
2023/09/18 12:45:31;;;;;;;24.23;10.15;;;;;;;;;;5015241;28;20025;-70
2023/09/18 12:47:57;;;;;;;22.20;8.43;;;;;;;;;;5016171;28;20026;-70
2023/09/18 12:50:23;;;;;;;14.75;8.85;;;;;;;;;;5014632;28;20022;-70
2023/09/18 12:52:48;;;;;;;18.35;9.57;;;;;;;;;;5014990;28;20071;-70
2023/09/18 12:55:24;;;;;;;18.08;9.65;;;;;;;;;;5015598;28;20038;-70
2023/09/18 12:57:50;;;;;;;17.02;8.93;;;;;;;;;;5016335;28;20243;-70
2023/09/18 13:00:19;;;;;;;19.60;9.75;;;;;;;;;;5015744;28;20475;-70
2023/09/18 13:02:45;;;;;;;20.58;10.27;;;;;;;;;;5014397;28;20479;-70
2023/09/18 13:05:11;;;;;;;23.02;10.70;;;;;;;;;;5014270;28;20038;-70
2023/09/18 13:07:44;;;;;;;21.67;10.30;;;;;;;;;;5015685;28;20037;-70
2023/09/18 13:10:10;;;;;;;21.50;10.63;;;;;;;;;;5015854;28;20112;-70
2023/09/18 13:12:50;;;;;;;22.70;11.23;;;;;;;;;;5014267;28;20565;-69
2023/09/18 13:15:31;;;;;;;21.10;10.45;;;;;;;;;;5015480;28;20045;-69
2023/09/18 13:17:59;;;;;;;20.48;11.48;;;;;;;;;;5014819;28;20025;-69
2023/09/18 13:20:27;;;;;;;16.00;10.30;;;;;;;;;;5015318;28;20049;-69
2023/09/18 13:22:54;;;;;;;16.33;10.60;;;;;;;;;;5015283;28;20044;-69
2023/09/18 13:25:25;;;;;;;18.17;11.05;;;;;;;;;;5014072;28;20029;-69
2023/09/18 13:27:51;;;;;;;20.17;11.30;;;;;;;;;;5014594;28;20058;-68
2023/09/18 13:30:17;;;;;;;22.98;10.23;;;;;;;;;;5014581;28;20579;-67
2023/09/18 13:32:44;;;;;;;18.02;9.90;;;;;;;;;;5054154;23;20466;-69
2023/09/18 13:35:11;;;;;;;16.77;9.20;;;;;;;;;;5034751;28;20140;-69
2023/09/18 13:37:37;;;;;;;13.93;9.32;;;;;;;;;;5035519;28;20056;-69
2023/09/18 13:40:02;;;;;;;17.52;8.75;;;;;;;;;;5034628;28;20057;-69
2023/09/18 13:42:30;;;;;;;18.48;9.38;;;;;;;;;;5030828;28;20439;-70
2023/09/18 13:44:56;;;;;;;20.35;11.82;;;;;;;;;;5027566;28;20018;-69
2023/09/18 13:47:21;;;;;;;21.60;11.90;;;;;;;;;;5029624;28;20034;-69
2023/09/18 13:49:47;;;;;;;25.38;12.65;;;;;;;;;;5027870;28;20025;-69
2023/09/18 13:52:12;;;;;;;24.13;12.50;;;;;;;;;;5017726;28;20030;-70
2023/09/18 13:54:37;;;;;;;21.23;12.23;;;;;;;;;;5034770;28;20546;-69
2023/09/18 13:57:05;;;;;;;21.63;11.45;;;;;;;;;;5032684;28;20078;-69
2023/09/18 13:59:30;;;;;;;22.98;12.65;;;;;;;;;;5017483;28;20029;-69
2023/09/18 14:01:55;;;;;;;24.85;12.73;;;;;;;;;;5013576;28;20096;-69
2023/09/18 14:04:22;;;;;;;20.65;11.88;;;;;;;;;;5015229;28;20045;-68
2023/09/18 14:06:47;;;;;;;23.33;12.95;;;;;;;;;;5014685;28;20041;-69
2023/09/18 14:09:12;;;;;;;22.23;13.82;;;;;;;;;;5014732;28;20022;-69
2023/09/18 14:11:38;;;;;;;21.98;13.50;;;;;;;;;;5014962;28;20377;-69
2023/09/18 14:14:03;;;;;;;25.83;14.07;;;;;;;;;;5017156;28;20028;-69
2023/09/18 14:16:30;;;;;;;25.25;13.73;;;;;;;;;;5027423;28;20111;-69
2023/09/18 14:18:55;;;;;;;26.52;14.18;;;;;;;;;;5014658;28;20095;-69